createdAt,value
2018-12-02T00:01:44.768Z,173.85
2018-12-02T00:04:13.763Z,171.40
2018-12-02T00:06:41.747Z,169.10
2018-12-02T00:09:09.703Z,176.18
2018-12-02T00:11:37.657Z,168.57
2018-12-02T00:14:05.783Z,164.43
2018-12-02T00:16:34.726Z,171.80
2018-12-02T00:19:02.689Z,167.87
2018-12-02T00:21:30.625Z,172.45
2018-12-02T00:23:58.586Z,168.65
2018-12-02T00:26:26.515Z,170.05
2018-12-02T00:28:54.476Z,179.72
2018-12-02T00:31:22.621Z,177.32
2018-12-02T00:33:51.034Z,174.50
2018-12-02T00:36:18.985Z,182.32
2018-12-02T00:38:46.907Z,166.03
2018-12-02T00:41:14.917Z,166.47
2018-12-02T00:43:42.924Z,148.75
2018-12-02T00:46:10.921Z,152.47
2018-12-02T00:48:40.146Z,152.90
2018-12-02T00:51:08.094Z,140.95
2018-12-02T00:53:36.051Z,142.53
2018-12-02T00:56:02.695Z,137.52
2018-12-02T00:58:30.656Z,143.00
2018-12-02T01:00:58.627Z,137.52
2018-12-02T01:03:26.640Z,135.37
2018-12-02T01:05:54.574Z,131.25
2018-12-02T01:08:22.536Z,131.60
2018-12-02T01:10:50.467Z,129.07
2018-12-02T01:13:18.811Z,132.97
2018-12-02T01:15:47.093Z,130.22
2018-12-02T01:18:15.157Z,124.95
2018-12-02T01:20:43.114Z,128.60
2018-12-02T01:23:11.073Z,127.92
2018-12-02T01:25:39.064Z,127.32
2018-12-02T01:28:07.540Z,126.45
2018-12-02T01:30:35.554Z,128.53
2018-12-02T01:33:04.511Z,130.18
2018-12-02T01:35:32.495Z,120.33
2018-12-02T01:38:00.468Z,127.55
2018-12-02T01:40:28.391Z,125.90
2018-12-02T01:42:56.491Z,128.32
2018-12-02T01:45:25.890Z,118.93
2018-12-02T01:47:56.031Z,120.62
2018-12-02T01:50:25.616Z,127.90
2018-12-02T01:52:54.615Z,128.25
2018-12-02T01:55:22.589Z,124.75
2018-12-02T01:57:50.536Z,127.72
2018-12-02T02:00:22.484Z,127.72
2018-12-02T02:02:50.837Z,124.10
2018-12-02T02:05:19.631Z,127.50
2018-12-02T02:07:47.653Z,119.77
2018-12-02T02:10:17.803Z,120.20
2018-12-02T02:12:45.742Z,119.57
2018-12-02T02:15:14.760Z,115.17
2018-12-02T02:17:42.789Z,130.80
2018-12-02T02:20:12.767Z,124.87
2018-12-02T02:22:42.272Z,126.75
2018-12-02T02:25:12.016Z,122.20
2018-12-02T02:27:40.844Z,125.50
2018-12-02T02:30:13.155Z,127.12
2018-12-02T02:32:41.243Z,124.60
2018-12-02T02:35:09.839Z,119.60
2018-12-02T02:37:37.945Z,120.17
2018-12-02T02:40:11.485Z,119.13
2018-12-02T02:42:39.505Z,120.40
2018-12-02T02:45:08.439Z,121.45
2018-12-02T02:47:36.372Z,114.37
2018-12-02T02:50:09.627Z,109.80
2018-12-02T02:52:37.719Z,112.97
2018-12-02T02:55:06.014Z,112.50
2018-12-02T02:57:33.999Z,110.72
2018-12-02T03:00:02.138Z,108.30
2018-12-02T03:02:30.386Z,113.35
2018-12-02T03:04:58.693Z,116.05
2018-12-02T03:07:26.958Z,112.00
2018-12-02T03:09:55.215Z,113.50
2018-12-02T03:12:23.467Z,114.28
2018-12-02T03:14:52.220Z,111.60
2018-12-02T03:17:20.426Z,110.85
2018-12-02T03:19:48.728Z,113.32
2018-12-02T03:22:17.045Z,113.30
2018-12-02T03:24:45.300Z,111.57
2018-12-02T03:27:14.502Z,110.10
2018-12-02T03:29:42.640Z,111.75
2018-12-02T03:32:10.952Z,106.65
2018-12-02T03:34:39.207Z,105.85
2018-12-02T03:37:07.537Z,112.03
2018-12-02T03:39:35.780Z,107.97
2018-12-02T03:42:04.156Z,108.42
2018-12-02T03:44:32.325Z,109.78
2018-12-02T03:47:00.570Z,110.85
2018-12-02T03:49:28.874Z,105.92
2018-12-02T03:51:57.183Z,102.17
2018-12-02T03:54:25.405Z,101.53
2018-12-02T03:56:53.671Z,95.28
2018-12-02T03:59:21.684Z,102.17
2018-12-02T04:01:49.663Z,105.50
2018-12-02T04:04:17.727Z,111.08
2018-12-02T04:06:45.966Z,105.70
2018-12-02T04:09:14.255Z,115.40
2018-12-02T04:11:42.581Z,115.62
2018-12-02T04:14:10.781Z,119.42
2018-12-02T04:16:39.115Z,117.55
2018-12-02T04:19:07.336Z,123.33
2018-12-02T04:21:35.613Z,123.58
2018-12-02T04:24:04.054Z,122.58
2018-12-02T04:26:32.185Z,123.58
2018-12-02T04:29:00.465Z,129.20
2018-12-02T04:31:29.147Z,129.18
2018-12-02T04:33:57.436Z,126.22
2018-12-02T04:36:25.702Z,124.97
2018-12-02T04:38:53.960Z,127.30
2018-12-02T04:41:22.276Z,124.00
2018-12-02T04:43:50.492Z,126.55
2018-12-02T04:46:18.783Z,113.97
2018-12-02T04:48:47.427Z,122.22
2018-12-02T04:51:15.787Z,120.92
2018-12-02T04:53:44.030Z,122.58
2018-12-02T04:56:12.328Z,117.60
2018-12-02T04:58:40.604Z,116.17
2018-12-02T05:01:08.896Z,116.17
2018-12-02T05:03:37.160Z,115.57
2018-12-02T05:06:05.435Z,113.72
2018-12-02T05:08:33.702Z,106.45
2018-12-02T05:11:02.006Z,109.87
2018-12-02T05:13:30.244Z,107.37
2018-12-02T05:15:58.555Z,106.55
2018-12-02T05:18:26.804Z,101.12
2018-12-02T05:20:55.083Z,105.35
2018-12-02T05:23:23.371Z,106.75
2018-12-02T05:25:51.682Z,110.75
2018-12-02T05:28:20.752Z,114.65
2018-12-02T05:30:48.986Z,119.62
2018-12-02T05:33:17.259Z,126.12
2018-12-02T05:35:45.568Z,131.18
2018-12-02T05:38:13.832Z,137.77
2018-12-02T05:40:42.966Z,157.78
2018-12-02T05:43:11.234Z,154.53
2018-12-02T05:45:40.315Z,145.15
2018-12-02T05:48:09.191Z,151.00
2018-12-02T05:50:37.283Z,140.62
2018-12-02T05:53:05.553Z,134.00
2018-12-02T05:55:35.604Z,139.03
2018-12-02T05:58:05.695Z,137.07
2018-12-02T06:00:34.053Z,148.62
2018-12-02T06:03:02.291Z,131.00
2018-12-02T06:05:30.595Z,142.90
2018-12-02T06:07:58.717Z,148.38
2018-12-02T06:10:26.762Z,151.00
2018-12-02T06:12:55.411Z,147.50
2018-12-02T06:15:23.731Z,141.30
2018-12-02T06:17:52.009Z,137.57
2018-12-02T06:20:21.473Z,135.40
2018-12-02T06:22:50.658Z,127.65
2018-12-02T06:25:18.902Z,116.25
2018-12-02T06:27:47.188Z,108.65
2018-12-02T06:30:17.366Z,94.32
2018-12-02T06:32:46.394Z,99.97
2018-12-02T06:35:14.939Z,104.47
2018-12-02T06:37:44.695Z,106.75
2018-12-02T06:40:18.738Z,107.83
2018-12-02T06:42:47.060Z,107.10
2018-12-02T06:45:15.364Z,108.47
2018-12-02T06:47:43.574Z,110.42
2018-12-02T06:50:17.016Z,105.65
2018-12-02T06:52:45.426Z,111.15
2018-12-02T06:55:20.272Z,113.00
2018-12-02T06:57:56.494Z,112.62
2018-12-02T07:00:43.072Z,110.78
2018-12-02T07:03:25.951Z,113.65
2018-12-02T07:05:53.936Z,121.05
2018-12-02T07:08:22.231Z,125.65
2018-12-02T07:10:50.511Z,122.17
2018-12-02T07:13:18.750Z,116.17
2018-12-02T07:15:47.059Z,119.13
2018-12-02T07:18:19.792Z,120.55
2018-12-02T07:20:52.531Z,115.55
2018-12-02T07:23:24.126Z,100.33
2018-12-02T07:25:57.003Z,96.67
2018-12-02T07:28:25.711Z,98.72
2018-12-02T07:30:53.967Z,95.45
2018-12-02T07:33:22.406Z,96.90
2018-12-02T07:36:07.031Z,92.65
2018-12-02T07:39:32.175Z,97.53
2018-12-02T07:42:00.350Z,102.10
2018-12-02T07:44:28.627Z,103.75
2018-12-02T07:47:03.520Z,103.42
2018-12-02T07:49:32.614Z,104.60
2018-12-02T07:52:00.960Z,104.90
2018-12-02T07:54:29.376Z,103.78
2018-12-02T07:56:57.540Z,107.25
2018-12-02T08:05:31.364Z,114.33
2018-12-02T08:08:07.005Z,109.48
2018-12-02T08:10:35.359Z,108.72
2018-12-02T08:13:28.662Z,105.43
2018-12-02T08:15:58.310Z,101.95
2018-12-02T08:18:26.495Z,104.95
2018-12-02T08:20:54.716Z,100.62
2018-12-02T08:23:24.055Z,99.62
2018-12-02T08:25:53.816Z,100.62
2018-12-02T08:28:21.955Z,110.83
2018-12-02T08:30:50.812Z,108.42
2018-12-02T08:33:19.325Z,111.40
2018-12-02T08:35:47.436Z,109.32
2018-12-02T08:38:15.575Z,113.57
2018-12-02T08:40:43.886Z,112.77
2018-12-02T08:43:12.528Z,118.62
2018-12-02T08:45:40.818Z,120.17
2018-12-02T08:48:10.463Z,125.60
2018-12-02T08:50:38.877Z,124.05
2018-12-02T08:53:09.541Z,128.53
2018-12-02T08:55:38.896Z,131.72
2018-12-02T08:58:08.042Z,135.63
2018-12-02T09:00:38.708Z,142.47
2018-12-02T09:03:12.653Z,141.88
2018-12-02T09:05:41.329Z,140.92
2018-12-02T09:08:11.284Z,145.60
2018-12-02T09:10:40.636Z,149.90
2018-12-02T09:13:10.624Z,148.80
2018-12-02T09:15:40.790Z,144.87
2018-12-02T09:18:11.330Z,145.07
2018-12-02T09:20:40.615Z,146.50
2018-12-02T09:23:11.548Z,143.30
2018-12-02T09:25:41.098Z,141.53
2018-12-02T09:28:09.755Z,145.95
2018-12-02T09:30:41.729Z,150.80
2018-12-02T09:33:09.960Z,152.10
2018-12-02T09:35:41.211Z,167.68
2018-12-02T09:38:11.458Z,169.32
2018-12-02T09:40:39.798Z,182.57
2018-12-02T09:43:08.167Z,182.60
2018-12-02T09:45:36.803Z,184.65
2018-12-02T09:48:07.436Z,182.90
2018-12-02T09:50:50.460Z,189.65
2018-12-02T09:53:19.598Z,181.02
2018-12-02T09:55:49.293Z,189.75
2018-12-02T09:58:26.200Z,225.97
2018-12-02T10:00:56.982Z,221.72
2018-12-02T10:03:25.276Z,237.72
2018-12-02T10:05:53.647Z,227.22
2018-12-02T10:08:21.862Z,236.77
2018-12-02T10:10:54.063Z,250.22
2018-12-02T10:13:23.623Z,250.43
2018-12-02T10:15:53.613Z,267.05
2018-12-02T10:18:23.014Z,254.32
2018-12-02T10:20:54.157Z,240.35
2018-12-02T10:23:23.275Z,229.90
2018-12-02T10:25:51.759Z,225.90
2018-12-02T10:28:20.658Z,219.70
2018-12-02T10:30:49.187Z,223.57
2018-12-02T10:33:17.408Z,221.15
2018-12-02T10:35:46.567Z,223.85
2018-12-02T10:38:14.941Z,216.88
2018-12-02T10:40:43.554Z,205.37
2018-12-02T10:43:14.033Z,207.37
2018-12-02T10:45:48.538Z,203.95
2018-12-02T10:48:17.450Z,211.15
2018-12-02T10:50:46.278Z,211.00
2018-12-02T10:53:19.730Z,215.47
2018-12-02T10:55:54.274Z,215.60
2018-12-02T10:58:26.995Z,214.57
2018-12-02T11:01:02.052Z,220.65
2018-12-02T11:03:31.011Z,221.72
2018-12-02T11:06:02.173Z,215.90
2018-12-02T11:08:34.492Z,230.22
2018-12-02T11:11:03.226Z,239.72
2018-12-02T11:13:33.692Z,235.88
2018-12-02T11:16:02.586Z,229.15
2018-12-02T11:18:31.290Z,242.20
2018-12-02T11:21:01.098Z,220.75
2018-12-02T11:23:30.583Z,237.63
2018-12-02T11:26:00.080Z,250.13
2018-12-02T11:28:29.833Z,241.40
2018-12-02T11:30:59.519Z,227.38
2018-12-02T11:33:28.132Z,231.50
2018-12-02T11:35:56.755Z,218.33
2018-12-02T11:38:26.636Z,228.88
2018-12-02T11:40:55.019Z,221.32
2018-12-02T11:43:23.300Z,231.45
2018-12-02T11:45:52.109Z,220.25
2018-12-02T11:48:20.771Z,217.28
2018-12-02T11:50:50.757Z,222.25
2018-12-02T11:53:23.867Z,218.42
2018-12-02T11:55:53.767Z,227.28
2018-12-02T11:58:22.119Z,217.00
2018-12-02T12:00:51.186Z,215.57
2018-12-02T12:03:19.611Z,224.98
2018-12-02T12:05:52.829Z,207.37
2018-12-02T12:08:40.177Z,217.90
2018-12-02T12:11:09.718Z,226.27
2018-12-02T12:13:40.073Z,216.00
2018-12-02T12:16:09.151Z,199.02
2018-12-02T12:18:37.387Z,204.63
2018-12-02T12:21:05.733Z,222.07
2018-12-02T12:23:38.384Z,209.03
2018-12-02T12:26:12.430Z,212.42
2018-12-02T12:28:41.862Z,201.90
2018-12-02T12:34:25.395Z,193.55
2018-12-02T12:36:59.118Z,190.88
2018-12-02T12:39:35.839Z,190.00
2018-12-02T12:42:06.817Z,186.28
2018-12-02T12:44:37.772Z,189.77
2018-12-02T12:47:06.740Z,190.60
2018-12-02T12:49:36.160Z,194.37
2018-12-02T12:52:04.768Z,196.25
2018-12-02T12:54:36.724Z,191.30
2018-12-02T12:57:06.877Z,186.45
2018-12-02T12:59:36.431Z,184.37
2018-12-02T13:02:05.796Z,176.90
2018-12-02T13:04:35.987Z,170.45
2018-12-02T13:07:07.173Z,168.70
2018-12-02T13:09:37.988Z,161.12
2018-12-02T13:12:08.123Z,165.88
2018-12-02T13:14:36.941Z,157.30
2018-12-02T13:20:02.605Z,158.03
2018-12-02T13:22:36.738Z,158.15
2018-12-02T13:27:57.070Z,150.40
2018-12-02T13:30:27.577Z,146.57
2018-12-02T13:32:56.760Z,148.55
2018-12-02T13:35:34.088Z,153.57
2018-12-02T13:38:02.889Z,141.77
2018-12-02T13:40:31.365Z,138.40
2018-12-02T13:43:04.320Z,142.93
2018-12-02T13:45:33.721Z,161.52
2018-12-02T13:48:03.182Z,248.78
2018-12-02T13:50:32.186Z,269.93
2018-12-02T13:53:00.422Z,320.40
2018-12-02T13:55:31.092Z,207.35
2018-12-02T13:58:00.385Z,154.72
2018-12-02T14:00:29.590Z,144.53
2018-12-02T14:03:00.780Z,134.22
2018-12-02T14:05:32.957Z,139.18
2018-12-02T14:08:04.920Z,139.00
2018-12-02T14:10:39.333Z,151.05
2018-12-02T14:13:14.016Z,150.68
2018-12-02T14:15:53.381Z,142.13
2018-12-02T14:18:45.005Z,138.65
2018-12-02T14:21:13.570Z,142.10
2018-12-02T14:23:42.932Z,139.72
2018-12-02T14:26:14.220Z,131.05
2018-12-02T14:29:17.935Z,129.10
2018-12-02T14:31:50.847Z,143.25
2018-12-02T14:34:19.056Z,166.35
2018-12-02T14:36:47.373Z,143.35
2018-12-02T14:39:16.451Z,146.00
2018-12-02T14:41:44.764Z,139.18
2018-12-02T14:44:13.063Z,137.37
2018-12-02T14:46:41.390Z,145.53
2018-12-02T14:49:15.294Z,128.82
2018-12-02T14:51:43.542Z,132.18
2018-12-02T14:54:11.833Z,119.10
2018-12-02T14:56:40.261Z,119.47
2018-12-02T14:59:08.588Z,142.18
2018-12-02T15:01:36.765Z,207.00
2018-12-02T15:04:05.332Z,196.47
2018-12-02T15:06:33.699Z,180.93
2018-12-02T15:09:02.943Z,179.75
2018-12-02T15:11:30.971Z,187.72
2018-12-02T15:13:59.508Z,175.53
2018-12-02T15:16:27.620Z,170.02
2018-12-02T15:18:55.971Z,183.35
2018-12-02T15:21:25.016Z,248.10
2018-12-02T15:23:53.225Z,190.35
2018-12-02T15:26:21.569Z,190.43
2018-12-02T15:28:50.297Z,196.57
2018-12-02T15:31:19.082Z,198.00
2018-12-02T15:33:48.548Z,193.55
2018-12-02T15:36:16.897Z,243.15
2018-12-02T15:38:45.163Z,261.05
2018-12-02T15:41:13.977Z,259.92
2018-12-02T15:43:42.479Z,249.88
2018-12-02T15:46:10.757Z,239.72
2018-12-02T15:48:39.005Z,225.00
2018-12-02T15:51:07.717Z,219.22
2018-12-02T15:53:35.968Z,250.85
2018-12-02T15:56:06.093Z,260.38
2018-12-02T15:58:34.567Z,242.68
2018-12-02T16:01:23.091Z,227.68
2018-12-02T16:03:52.111Z,220.30
2018-12-02T16:06:21.276Z,241.42
2018-12-02T16:08:52.280Z,260.70
2018-12-02T16:11:20.469Z,271.00
2018-12-02T16:13:49.684Z,362.63
2018-12-02T16:16:17.967Z,311.90
2018-12-02T16:18:48.675Z,281.50
2018-12-02T16:21:16.750Z,301.90
2018-12-02T16:23:44.852Z,315.35
2018-12-02T16:26:14.123Z,325.38
2018-12-02T16:28:43.683Z,349.52
2018-12-02T16:31:14.682Z,379.18
2018-12-02T16:33:43.376Z,435.45
2018-12-02T16:36:17.514Z,409.65
2018-12-02T16:38:47.761Z,435.75
2018-12-02T16:41:16.051Z,426.00
2018-12-02T16:43:44.497Z,429.38
2018-12-02T16:46:13.409Z,460.23
2018-12-02T16:48:43.064Z,463.33
2018-12-02T16:51:11.380Z,466.25
2018-12-02T16:53:40.981Z,463.40
2018-12-02T16:56:10.784Z,459.95
2018-12-02T16:58:47.986Z,461.45
2018-12-02T17:01:18.919Z,469.60
2018-12-02T17:03:49.479Z,453.85
2018-12-02T17:06:18.262Z,446.00
2018-12-02T17:08:47.943Z,431.20
2018-12-02T17:11:16.142Z,429.55
2018-12-02T17:13:44.629Z,433.53
2018-12-02T17:16:16.183Z,394.55
2018-12-02T17:18:46.339Z,368.12
2018-12-02T17:21:36.048Z,324.58
2018-12-02T17:24:07.836Z,376.25
2018-12-02T17:26:40.006Z,416.50
2018-12-02T17:29:17.376Z,369.90
2018-12-02T17:31:56.624Z,389.55
2018-12-02T17:34:26.702Z,414.35
2018-12-02T17:36:59.770Z,396.95
2018-12-02T17:43:24.794Z,402.70
2018-12-02T17:46:11.406Z,373.77
2018-12-02T17:48:42.966Z,351.37
2018-12-02T17:51:12.225Z,367.57
2018-12-02T17:53:44.784Z,335.55
2018-12-02T17:56:15.429Z,360.68
2018-12-02T17:58:43.558Z,371.98
2018-12-02T18:01:11.915Z,392.00
2018-12-02T18:03:40.558Z,419.25
2018-12-02T18:06:10.055Z,429.25
2018-12-02T18:08:38.359Z,445.10
2018-12-02T18:11:10.221Z,422.00
2018-12-02T18:13:38.312Z,364.80
2018-12-02T18:16:07.205Z,356.50
2018-12-02T18:18:35.569Z,383.13
2018-12-02T18:21:04.333Z,380.42
2018-12-02T18:23:36.046Z,386.98
2018-12-02T18:26:08.108Z,384.32
2018-12-02T18:28:45.313Z,373.80
2018-12-02T18:31:14.171Z,399.27
2018-12-02T18:33:44.678Z,407.35
2018-12-02T18:36:16.893Z,404.18
2018-12-02T18:38:49.077Z,419.90
2018-12-02T18:41:41.405Z,431.45
2018-12-02T18:44:14.096Z,418.97
2018-12-02T18:46:43.362Z,417.00
2018-12-02T18:49:15.780Z,410.25
2018-12-02T18:51:45.792Z,420.02
2018-12-02T18:54:14.808Z,423.52
2018-12-02T18:56:43.398Z,430.33
2018-12-02T18:59:11.579Z,412.72
2018-12-02T19:01:39.611Z,410.37
2018-12-02T19:04:07.844Z,412.57
2018-12-02T19:06:36.349Z,408.55
2018-12-02T19:09:08.915Z,407.40
2018-12-02T19:11:37.369Z,423.20
2018-12-02T19:14:08.016Z,420.62
2018-12-02T19:16:36.170Z,392.57
2018-12-02T19:19:04.646Z,394.65
2018-12-02T19:21:33.356Z,404.95
2018-12-02T19:24:02.775Z,404.98
2018-12-02T19:26:31.639Z,418.97
2018-12-02T19:28:59.932Z,410.73
2018-12-02T19:31:28.319Z,405.20
2018-12-02T19:33:58.023Z,421.93
2018-12-02T19:36:30.130Z,447.70
2018-12-02T19:38:59.628Z,448.55
2018-12-02T19:41:28.459Z,422.48
2018-12-02T19:43:57.040Z,421.70
2018-12-02T19:46:26.569Z,408.45
2018-12-02T19:48:55.779Z,413.20
2018-12-02T19:51:23.912Z,416.68
2018-12-02T19:53:52.532Z,432.52
2018-12-02T19:56:21.215Z,453.65
2018-12-02T19:58:49.363Z,473.23
2018-12-02T20:01:17.504Z,466.08
2018-12-02T20:03:45.644Z,458.05
2018-12-02T20:06:13.844Z,442.87
2018-12-02T20:08:43.088Z,420.88
2018-12-02T20:11:11.456Z,416.32
2018-12-02T20:13:42.459Z,395.75
2018-12-02T20:16:17.117Z,385.27
2018-12-02T20:18:45.497Z,377.07
2018-12-02T20:21:14.447Z,378.55
2018-12-02T20:23:48.399Z,403.32
2018-12-02T20:26:16.498Z,396.63
2018-12-02T20:28:47.871Z,388.50
2018-12-02T20:31:22.913Z,413.63
2018-12-02T20:33:51.567Z,409.55
2018-12-02T20:36:20.913Z,405.55
2018-12-02T20:38:53.000Z,418.95
2018-12-02T20:41:23.301Z,434.80
2018-12-02T20:43:54.635Z,444.50
2018-12-02T20:46:22.978Z,449.48
2018-12-02T20:48:55.724Z,445.42
2018-12-02T20:51:25.322Z,454.32
2018-12-02T20:53:53.486Z,458.92
2018-12-02T20:56:22.650Z,478.80
2018-12-02T20:58:52.613Z,463.95
2018-12-02T21:01:21.210Z,496.83
2018-12-02T21:03:53.160Z,503.62
2018-12-02T21:09:05.951Z,497.77
2018-12-02T21:11:40.554Z,484.00
2018-12-02T21:14:07.560Z,453.85
2018-12-02T21:16:40.355Z,441.50
2018-12-02T21:19:09.968Z,444.58
2018-12-02T21:21:39.377Z,408.62
2018-12-02T21:24:07.985Z,391.47
2018-12-02T21:26:36.226Z,409.13
2018-12-02T21:29:04.960Z,398.27
2018-12-02T21:31:33.248Z,405.27
2018-12-02T21:34:01.825Z,409.87
2018-12-02T21:36:36.549Z,423.40
2018-12-02T21:39:09.410Z,442.65
2018-12-02T21:41:37.540Z,447.98
2018-12-02T21:44:06.402Z,422.13
2018-12-02T21:46:34.783Z,429.02
2018-12-02T21:49:04.200Z,472.65
2018-12-02T21:51:32.848Z,476.30
2018-12-02T21:54:01.910Z,457.60
2018-12-02T21:56:31.718Z,448.05
2018-12-02T21:58:59.877Z,472.23
2018-12-02T22:01:28.180Z,479.07
2018-12-02T22:03:57.608Z,430.35
2018-12-02T22:06:26.733Z,428.68
2018-12-02T22:08:56.048Z,444.37
2018-12-02T22:11:24.391Z,445.48
2018-12-02T22:13:52.737Z,406.05
2018-12-02T22:16:21.176Z,389.80
2018-12-02T22:18:49.576Z,396.55
2018-12-02T22:21:19.012Z,401.20
2018-12-02T22:23:47.038Z,404.77
2018-12-02T22:26:15.396Z,399.17
2018-12-02T22:28:43.627Z,382.15
2018-12-02T22:31:11.867Z,373.10
2018-12-02T22:33:40.152Z,356.20
2018-12-02T22:36:14.052Z,334.92
2018-12-02T22:38:37.140Z,298.38
2018-12-02T22:41:05.862Z,296.35
2018-12-02T22:43:34.907Z,276.95
2018-12-02T22:46:03.252Z,266.65
2018-12-02T22:48:32.722Z,252.38
2018-12-02T22:51:02.223Z,240.22
2018-12-02T22:53:31.293Z,239.72
2018-12-02T22:55:59.727Z,221.80
2018-12-02T22:58:28.164Z,225.05
2018-12-02T23:01:02.358Z,229.60
2018-12-02T23:03:31.650Z,236.82
2018-12-02T23:06:02.118Z,233.38
2018-12-02T23:08:30.472Z,236.12
2018-12-02T23:10:58.669Z,225.80
2018-12-02T23:13:26.966Z,227.87
2018-12-02T23:15:55.240Z,213.70
2018-12-02T23:18:23.887Z,222.07
2018-12-02T23:20:52.136Z,217.70
2018-12-02T23:23:21.332Z,220.02
2018-12-02T23:25:49.548Z,219.05
2018-12-02T23:28:17.836Z,220.37
2018-12-02T23:30:46.047Z,216.45
2018-12-02T23:33:15.284Z,207.15
2018-12-02T23:35:45.482Z,208.02
2018-12-02T23:38:14.240Z,209.03
2018-12-02T23:40:42.668Z,214.35
2018-12-02T23:43:12.690Z,211.07
2018-12-02T23:45:41.370Z,218.22
2018-12-02T23:48:10.430Z,212.48
2018-12-02T23:50:42.024Z,216.78
2018-12-02T23:53:10.383Z,228.45
2018-12-02T23:55:38.809Z,216.93
2018-12-02T23:58:06.949Z,217.85
